sensor_id;sensor_type;location;lat;lon;timestamp;pressure;altitude;pressure_sealevel;temperature;humidity
49297;BME280;35163;48.878;18.040;2022-07-23T00:00:13;98397.03;;;23.30;63.75
49297;BME280;35163;48.878;18.040;2022-07-23T00:02:39;98396.59;;;23.25;63.87
49297;BME280;35163;48.878;18.040;2022-07-23T00:05:07;98389.06;;;23.21;63.63
49297;BME280;35163;48.878;18.040;2022-07-23T00:07:34;98391.56;;;23.22;63.18
49297;BME280;35163;48.878;18.040;2022-07-23T00:10:00;98397.25;;;23.17;63.82
49297;BME280;35163;48.878;18.040;2022-07-23T00:12:27;98393.75;;;23.17;64.18
49297;BME280;35163;48.878;18.040;2022-07-23T00:14:54;98387.91;;;23.13;63.83
49297;BME280;35163;48.878;18.040;2022-07-23T00:17:20;98391.50;;;22.91;64.86
49297;BME280;35163;48.878;18.040;2022-07-23T00:19:47;98392.38;;;22.91;65.37
49297;BME280;35163;48.878;18.040;2022-07-23T00:22:14;98393.22;;;22.92;65.17
49297;BME280;35163;48.878;18.040;2022-07-23T00:24:40;98396.53;;;22.94;63.27
49297;BME280;35163;48.878;18.040;2022-07-23T00:27:07;98392.31;;;22.81;63.28
49297;BME280;35163;48.878;18.040;2022-07-23T00:29:34;98398.66;;;22.79;62.97
49297;BME280;35163;48.878;18.040;2022-07-23T00:32:00;98395.13;;;22.90;63.38
49297;BME280;35163;48.878;18.040;2022-07-23T00:34:27;98394.41;;;22.88;63.68
49297;BME280;35163;48.878;18.040;2022-07-23T00:36:54;98396.00;;;22.79;64.44
49297;BME280;35163;48.878;18.040;2022-07-23T00:39:20;98391.19;;;22.84;64.85
49297;BME280;35163;48.878;18.040;2022-07-23T00:41:49;98395.19;;;22.78;64.91
49297;BME280;35163;48.878;18.040;2022-07-23T00:46:49;98399.28;;;22.71;64.85
49297;BME280;35163;48.878;18.040;2022-07-23T00:49:16;98388.03;;;22.69;64.54
49297;BME280;35163;48.878;18.040;2022-07-23T00:51:42;98382.78;;;22.69;65.05
49297;BME280;35163;48.878;18.040;2022-07-23T00:54:10;98377.88;;;22.64;64.97
49297;BME280;35163;48.878;18.040;2022-07-23T00:56:37;98378.97;;;22.62;64.50
49297;BME280;35163;48.878;18.040;2022-07-23T00:59:05;98378.47;;;22.56;65.26
49297;BME280;35163;48.878;18.040;2022-07-23T01:01:32;98373.47;;;22.53;65.06
49297;BME280;35163;48.878;18.040;2022-07-23T01:03:59;98376.09;;;22.53;65.26
49297;BME280;35163;48.878;18.040;2022-07-23T01:06:26;98377.19;;;22.51;65.54
49297;BME280;35163;48.878;18.040;2022-07-23T01:08:56;98375.91;;;22.45;65.69
49297;BME280;35163;48.878;18.040;2022-07-23T01:11:23;98379.25;;;22.47;65.07
49297;BME280;35163;48.878;18.040;2022-07-23T01:13:51;98371.50;;;22.34;66.09
49297;BME280;35163;48.878;18.040;2022-07-23T01:16:17;98368.53;;;22.27;65.52
49297;BME280;35163;48.878;18.040;2022-07-23T01:18:44;98368.78;;;22.24;66.63
49297;BME280;35163;48.878;18.040;2022-07-23T01:21:11;98361.84;;;22.23;66.35
49297;BME280;35163;48.878;18.040;2022-07-23T01:23:41;98365.44;;;22.22;66.22
49297;BME280;35163;48.878;18.040;2022-07-23T01:26:08;98361.00;;;22.23;66.76
49297;BME280;35163;48.878;18.040;2022-07-23T01:28:37;98365.22;;;22.14;67.05
49297;BME280;35163;48.878;18.040;2022-07-23T01:31:03;98367.13;;;22.12;67.42
49297;BME280;35163;48.878;18.040;2022-07-23T01:33:30;98366.66;;;22.06;67.35
49297;BME280;35163;48.878;18.040;2022-07-23T01:36:00;98366.78;;;22.05;67.82
49297;BME280;35163;48.878;18.040;2022-07-23T01:38:26;98366.44;;;22.09;67.57
49297;BME280;35163;48.878;18.040;2022-07-23T01:40:53;98365.00;;;22.05;67.95
49297;BME280;35163;48.878;18.040;2022-07-23T01:43:21;98367.16;;;22.00;68.36
49297;BME280;35163;48.878;18.040;2022-07-23T01:45:50;98362.88;;;21.88;68.16
49297;BME280;35163;48.878;18.040;2022-07-23T01:48:17;98361.22;;;21.87;68.77
49297;BME280;35163;48.878;18.040;2022-07-23T01:50:46;98361.22;;;21.87;68.68
49297;BME280;35163;48.878;18.040;2022-07-23T01:53:14;98357.88;;;21.84;67.91
49297;BME280;35163;48.878;18.040;2022-07-23T01:55:41;98351.41;;;21.77;68.89
49297;BME280;35163;48.878;18.040;2022-07-23T01:58:08;98357.13;;;21.71;68.90
49297;BME280;35163;48.878;18.040;2022-07-23T02:00:35;98349.13;;;21.72;68.76
49297;BME280;35163;48.878;18.040;2022-07-23T02:03:02;98355.22;;;21.73;68.58
49297;BME280;35163;48.878;18.040;2022-07-23T02:05:29;98363.59;;;21.78;68.33
49297;BME280;35163;48.878;18.040;2022-07-23T02:07:56;98353.31;;;21.75;68.51
49297;BME280;35163;48.878;18.040;2022-07-23T02:10:23;98343.84;;;21.72;68.60
49297;BME280;35163;48.878;18.040;2022-07-23T02:12:50;98346.38;;;21.74;69.17
49297;BME280;35163;48.878;18.040;2022-07-23T02:15:17;98341.34;;;21.71;69.38
49297;BME280;35163;48.878;18.040;2022-07-23T02:17:43;98342.91;;;21.62;69.71
49297;BME280;35163;48.878;18.040;2022-07-23T02:20:11;98341.50;;;21.58;69.54
49297;BME280;35163;48.878;18.040;2022-07-23T02:22:38;98335.63;;;21.54;70.46
49297;BME280;35163;48.878;18.040;2022-07-23T02:25:06;98343.06;;;21.49;70.39
49297;BME280;35163;48.878;18.040;2022-07-23T02:27:33;98342.34;;;21.47;70.27
49297;BME280;35163;48.878;18.040;2022-07-23T02:30:00;98337.06;;;21.47;70.38
49297;BME280;35163;48.878;18.040;2022-07-23T02:32:27;98338.38;;;21.41;70.79
49297;BME280;35163;48.878;18.040;2022-07-23T02:34:54;98350.94;;;21.38;70.96
49297;BME280;35163;48.878;18.040;2022-07-23T02:37:21;98343.03;;;21.26;70.95
49297;BME280;35163;48.878;18.040;2022-07-23T02:39:48;98354.41;;;21.27;71.38
49297;BME280;35163;48.878;18.040;2022-07-23T02:42:15;98350.00;;;21.27;71.10
49297;BME280;35163;48.878;18.040;2022-07-23T02:44:42;98357.41;;;21.22;70.73
49297;BME280;35163;48.878;18.040;2022-07-23T02:47:09;98363.47;;;21.22;70.89
49297;BME280;35163;48.878;18.040;2022-07-23T02:49:36;98359.53;;;21.17;71.77
49297;BME280;35163;48.878;18.040;2022-07-23T02:52:02;98359.78;;;21.14;70.90
49297;BME280;35163;48.878;18.040;2022-07-23T02:54:29;98353.44;;;21.16;70.75
49297;BME280;35163;48.878;18.040;2022-07-23T02:56:56;98358.44;;;21.08;71.47
49297;BME280;35163;48.878;18.040;2022-07-23T02:59:23;98356.19;;;21.03;71.75
49297;BME280;35163;48.878;18.040;2022-07-23T03:01:49;98354.47;;;21.02;71.73
49297;BME280;35163;48.878;18.040;2022-07-23T03:04:16;98349.59;;;21.09;71.91
49297;BME280;35163;48.878;18.040;2022-07-23T03:06:43;98353.75;;;21.00;72.05
49297;BME280;35163;48.878;18.040;2022-07-23T03:09:09;98351.63;;;21.05;71.47
49297;BME280;35163;48.878;18.040;2022-07-23T03:11:36;98341.94;;;21.06;72.40
49297;BME280;35163;48.878;18.040;2022-07-23T03:14:03;98343.72;;;21.05;71.84
49297;BME280;35163;48.878;18.040;2022-07-23T03:16:29;98345.53;;;21.05;71.82
49297;BME280;35163;48.878;18.040;2022-07-23T03:18:56;98337.53;;;21.06;71.36
49297;BME280;35163;48.878;18.040;2022-07-23T03:21:23;98338.38;;;21.07;71.56
49297;BME280;35163;48.878;18.040;2022-07-23T03:23:49;98341.84;;;21.07;71.28
49297;BME280;35163;48.878;18.040;2022-07-23T03:26:16;98342.91;;;21.05;71.36
49297;BME280;35163;48.878;18.040;2022-07-23T03:28:43;98342.19;;;21.03;71.69
49297;BME280;35163;48.878;18.040;2022-07-23T03:31:09;98346.03;;;21.10;71.90
49297;BME280;35163;48.878;18.040;2022-07-23T03:33:36;98339.09;;;21.09;71.71
49297;BME280;35163;48.878;18.040;2022-07-23T03:36:03;98331.81;;;21.12;71.60
49297;BME280;35163;48.878;18.040;2022-07-23T03:38:34;98336.69;;;21.17;70.89
49297;BME280;35163;48.878;18.040;2022-07-23T03:41:01;98337.91;;;21.13;70.83
49297;BME280;35163;48.878;18.040;2022-07-23T03:43:28;98335.88;;;21.17;71.39
49297;BME280;35163;48.878;18.040;2022-07-23T03:45:55;98342.69;;;21.19;70.51
49297;BME280;35163;48.878;18.040;2022-07-23T03:48:21;98341.50;;;21.23;70.86
49297;BME280;35163;48.878;18.040;2022-07-23T03:50:48;98343.03;;;21.26;70.51
49297;BME280;35163;48.878;18.040;2022-07-23T03:53:15;98348.06;;;21.29;70.27
49297;BME280;35163;48.878;18.040;2022-07-23T03:55:41;98340.53;;;21.24;70.63
49297;BME280;35163;48.878;18.040;2022-07-23T03:58:08;98345.34;;;21.31;70.86
49297;BME280;35163;48.878;18.040;2022-07-23T04:00:35;98341.84;;;21.30;71.11
49297;BME280;35163;48.878;18.040;2022-07-23T04:03:01;98340.19;;;21.41;70.24
49297;BME280;35163;48.878;18.040;2022-07-23T04:05:28;98343.53;;;21.43;69.99
49297;BME280;35163;48.878;18.040;2022-07-23T04:07:55;98345.81;;;21.47;69.81
49297;BME280;35163;48.878;18.040;2022-07-23T04:10:22;98353.31;;;21.52;69.51
49297;BME280;35163;48.878;18.040;2022-07-23T04:12:48;98352.72;;;21.48;69.66
49297;BME280;35163;48.878;18.040;2022-07-23T04:15:15;98353.56;;;21.49;69.80
49297;BME280;35163;48.878;18.040;2022-07-23T04:17:41;98357.25;;;21.46;69.70
49297;BME280;35163;48.878;18.040;2022-07-23T04:20:10;98356.94;;;21.51;70.22
49297;BME280;35163;48.878;18.040;2022-07-23T04:22:37;98351.78;;;21.49;69.45
49297;BME280;35163;48.878;18.040;2022-07-23T04:25:05;98350.47;;;21.67;69.12
49297;BME280;35163;48.878;18.040;2022-07-23T04:27:32;98353.44;;;21.62;69.42
49297;BME280;35163;48.878;18.040;2022-07-23T04:29:59;98347.34;;;21.61;69.30
49297;BME280;35163;48.878;18.040;2022-07-23T04:32:26;98357.03;;;21.61;70.07
49297;BME280;35163;48.878;18.040;2022-07-23T04:34:53;98355.13;;;21.63;70.14
49297;BME280;35163;48.878;18.040;2022-07-23T04:37:19;98348.41;;;21.59;69.81
49297;BME280;35163;48.878;18.040;2022-07-23T04:39:46;98350.94;;;21.49;70.26
49297;BME280;35163;48.878;18.040;2022-07-23T04:42:13;98349.50;;;21.56;69.80
49297;BME280;35163;48.878;18.040;2022-07-23T04:44:39;98349.97;;;21.73;69.65
49297;BME280;35163;48.878;18.040;2022-07-23T04:47:06;98350.44;;;21.78;68.68
49297;BME280;35163;48.878;18.040;2022-07-23T04:49:33;98346.88;;;21.91;68.84
49297;BME280;35163;48.878;18.040;2022-07-23T04:51:59;98361.38;;;22.18;67.85
49297;BME280;35163;48.878;18.040;2022-07-23T04:54:26;98354.41;;;22.28;67.28
49297;BME280;35163;48.878;18.040;2022-07-23T04:56:53;98349.16;;;22.50;66.91
49297;BME280;35163;48.878;18.040;2022-07-23T04:59:19;98343.00;;;22.72;65.40
49297;BME280;35163;48.878;18.040;2022-07-23T05:01:46;98323.59;;;22.73;65.06
49297;BME280;35163;48.878;18.040;2022-07-23T05:04:13;98326.88;;;22.87;65.03
49297;BME280;35163;48.878;18.040;2022-07-23T05:06:39;98327.09;;;23.05;64.83
49297;BME280;35163;48.878;18.040;2022-07-23T05:09:06;98331.78;;;23.23;64.64
49297;BME280;35163;48.878;18.040;2022-07-23T05:11:33;98338.84;;;23.44;63.90
49297;BME280;35163;48.878;18.040;2022-07-23T05:13:59;98340.22;;;24.09;61.97
49297;BME280;35163;48.878;18.040;2022-07-23T05:16:26;98342.19;;;24.96;58.06
49297;BME280;35163;48.878;18.040;2022-07-23T05:18:53;98338.72;;;25.71;55.71
49297;BME280;35163;48.878;18.040;2022-07-23T05:21:20;98338.78;;;25.80;53.47
49297;BME280;35163;48.878;18.040;2022-07-23T05:23:46;98334.91;;;25.08;56.50
49297;BME280;35163;48.878;18.040;2022-07-23T05:26:13;98336.88;;;24.76;58.32
49297;BME280;35163;48.878;18.040;2022-07-23T05:28:40;98332.31;;;24.98;58.94
49297;BME280;35163;48.878;18.040;2022-07-23T05:31:13;98341.69;;;25.20;56.94
49297;BME280;35163;48.878;18.040;2022-07-23T05:33:40;98332.13;;;25.47;56.59
49297;BME280;35163;48.878;18.040;2022-07-23T05:36:06;98337.69;;;26.01;55.54
49297;BME280;35163;48.878;18.040;2022-07-23T05:38:33;98342.50;;;26.33;53.50
49297;BME280;35163;48.878;18.040;2022-07-23T05:41:00;98348.25;;;26.47;54.00
49297;BME280;35163;48.878;18.040;2022-07-23T05:43:27;98345.19;;;27.32;49.44
49297;BME280;35163;48.878;18.040;2022-07-23T05:45:54;98349.56;;;27.84;48.53
49297;BME280;35163;48.878;18.040;2022-07-23T05:48:21;98341.13;;;27.19;50.60
49297;BME280;35163;48.878;18.040;2022-07-23T05:50:48;98346.94;;;26.96;50.25
49297;BME280;35163;48.878;18.040;2022-07-23T05:53:15;98346.50;;;27.36;49.40
49297;BME280;35163;48.878;18.040;2022-07-23T05:55:41;98341.13;;;27.19;49.37
49297;BME280;35163;48.878;18.040;2022-07-23T05:58:08;98334.63;;;27.92;47.53
49297;BME280;35163;48.878;18.040;2022-07-23T06:00:35;98331.50;;;28.21;46.18
49297;BME280;35163;48.878;18.040;2022-07-23T06:03:02;98329.34;;;28.00;45.66
49297;BME280;35163;48.878;18.040;2022-07-23T06:05:28;98325.38;;;28.62;43.84
49297;BME280;35163;48.878;18.040;2022-07-23T06:07:55;98317.66;;;29.18;42.66
49297;BME280;35163;48.878;18.040;2022-07-23T06:10:22;98322.81;;;29.59;41.13
49297;BME280;35163;48.878;18.040;2022-07-23T06:12:48;98334.72;;;29.80;41.36
49297;BME280;35163;48.878;18.040;2022-07-23T06:15:15;98333.97;;;29.95;41.97
49297;BME280;35163;48.878;18.040;2022-07-23T06:17:42;98321.50;;;29.55;42.54
49297;BME280;35163;48.878;18.040;2022-07-23T06:20:09;98323.84;;;30.14;41.74
49297;BME280;35163;48.878;18.040;2022-07-23T06:22:36;98316.91;;;30.90;40.84
49297;BME280;35163;48.878;18.040;2022-07-23T06:25:03;98319.97;;;31.47;39.36
49297;BME280;35163;48.878;18.040;2022-07-23T06:27:37;98333.91;;;32.67;38.35
49297;BME280;35163;48.878;18.040;2022-07-23T06:30:04;98332.91;;;33.95;35.55
49297;BME280;35163;48.878;18.040;2022-07-23T06:32:32;98330.19;;;33.88;34.42
49297;BME280;35163;48.878;18.040;2022-07-23T06:34:58;98327.19;;;32.78;35.09
49297;BME280;35163;48.878;18.040;2022-07-23T06:37:25;98328.66;;;33.09;34.58
49297;BME280;35163;48.878;18.040;2022-07-23T06:39:52;98329.44;;;33.52;34.44
49297;BME280;35163;48.878;18.040;2022-07-23T06:42:19;98334.25;;;32.86;35.27
49297;BME280;35163;48.878;18.040;2022-07-23T06:44:46;98335.25;;;32.56;35.90
49297;BME280;35163;48.878;18.040;2022-07-23T06:47:13;98332.19;;;30.58;39.76
49297;BME280;35163;48.878;18.040;2022-07-23T06:49:39;98328.19;;;29.51;42.20
49297;BME280;35163;48.878;18.040;2022-07-23T06:52:07;98333.63;;;29.18;42.46
49297;BME280;35163;48.878;18.040;2022-07-23T06:54:34;98325.88;;;28.99;43.22
49297;BME280;35163;48.878;18.040;2022-07-23T06:57:01;98330.66;;;29.04;44.79
49297;BME280;35163;48.878;18.040;2022-07-23T06:59:28;98325.06;;;29.39;44.23
49297;BME280;35163;48.878;18.040;2022-07-23T07:01:54;98327.94;;;29.29;44.96
49297;BME280;35163;48.878;18.040;2022-07-23T07:04:21;98333.59;;;29.26;44.38
49297;BME280;35163;48.878;18.040;2022-07-23T07:06:48;98340.28;;;28.97;43.76
49297;BME280;35163;48.878;18.040;2022-07-23T07:09:14;98346.00;;;28.44;44.38
49297;BME280;35163;48.878;18.040;2022-07-23T07:11:41;98342.38;;;28.36;46.07
49297;BME280;35163;48.878;18.040;2022-07-23T07:14:08;98342.38;;;28.36;44.70
49297;BME280;35163;48.878;18.040;2022-07-23T07:16:34;98343.34;;;28.44;45.40
49297;BME280;35163;48.878;18.040;2022-07-23T07:19:01;98336.88;;;28.63;44.11
49297;BME280;35163;48.878;18.040;2022-07-23T07:21:29;98326.34;;;28.86;43.38
49297;BME280;35163;48.878;18.040;2022-07-23T07:23:55;98336.00;;;28.96;43.56
49297;BME280;35163;48.878;18.040;2022-07-23T07:26:22;98335.72;;;29.79;42.39
49297;BME280;35163;48.878;18.040;2022-07-23T07:28:49;98328.34;;;30.60;42.10
49297;BME280;35163;48.878;18.040;2022-07-23T07:31:15;98331.38;;;30.72;41.89
49297;BME280;35163;48.878;18.040;2022-07-23T07:33:42;98324.56;;;31.23;41.20
49297;BME280;35163;48.878;18.040;2022-07-23T07:36:10;98317.56;;;30.92;40.54
49297;BME280;35163;48.878;18.040;2022-07-23T07:38:44;98324.31;;;30.79;41.78
49297;BME280;35163;48.878;18.040;2022-07-23T07:41:10;98317.25;;;30.72;41.92
49297;BME280;35163;48.878;18.040;2022-07-23T07:43:37;98307.69;;;30.92;39.99
49297;BME280;35163;48.878;18.040;2022-07-23T07:46:04;98312.03;;;31.09;38.86
49297;BME280;35163;48.878;18.040;2022-07-23T07:48:30;98316.69;;;31.67;37.93
49297;BME280;35163;48.878;18.040;2022-07-23T07:50:57;98319.69;;;32.16;36.25
49297;BME280;35163;48.878;18.040;2022-07-23T07:53:25;98320.34;;;32.69;35.82
49297;BME280;35163;48.878;18.040;2022-07-23T07:55:51;98314.69;;;32.57;36.05
49297;BME280;35163;48.878;18.040;2022-07-23T07:58:18;98308.09;;;32.31;35.80
49297;BME280;35163;48.878;18.040;2022-07-23T08:00:45;98313.84;;;32.85;35.60
49297;BME280;35163;48.878;18.040;2022-07-23T08:03:15;98307.31;;;31.93;36.66
49297;BME280;35163;48.878;18.040;2022-07-23T08:05:43;98297.22;;;32.61;36.58
49297;BME280;35163;48.878;18.040;2022-07-23T08:08:09;98314.34;;;33.02;35.59
49297;BME280;35163;48.878;18.040;2022-07-23T08:10:41;98301.97;;;32.94;35.34
49297;BME280;35163;48.878;18.040;2022-07-23T08:13:13;98308.03;;;32.53;35.20
49297;BME280;35163;48.878;18.040;2022-07-23T08:15:40;98313.75;;;32.71;35.70
49297;BME280;35163;48.878;18.040;2022-07-23T08:18:08;98305.31;;;33.03;36.63
49297;BME280;35163;48.878;18.040;2022-07-23T08:20:35;98313.25;;;33.18;35.27
49297;BME280;35163;48.878;18.040;2022-07-23T08:23:06;98314.22;;;33.53;35.30
49297;BME280;35163;48.878;18.040;2022-07-23T08:25:39;98318.34;;;33.62;34.15
49297;BME280;35163;48.878;18.040;2022-07-23T08:28:08;98318.81;;;33.73;35.66
49297;BME280;35163;48.878;18.040;2022-07-23T08:30:36;98315.75;;;33.76;35.32
49297;BME280;35163;48.878;18.040;2022-07-23T08:33:08;98309.97;;;33.65;34.95
49297;BME280;35163;48.878;18.040;2022-07-23T08:35:56;98320.75;;;33.01;34.39
49297;BME280;35163;48.878;18.040;2022-07-23T08:38:24;98324.75;;;32.83;36.00
49297;BME280;35163;48.878;18.040;2022-07-23T08:40:53;98320.16;;;33.06;35.55
49297;BME280;35163;48.878;18.040;2022-07-23T08:43:22;98317.84;;;33.38;36.58
49297;BME280;35163;48.878;18.040;2022-07-23T08:45:51;98310.50;;;33.54;34.66
49297;BME280;35163;48.878;18.040;2022-07-23T08:48:20;98317.88;;;32.67;35.22
49297;BME280;35163;48.878;18.040;2022-07-23T08:50:54;98314.69;;;32.57;35.79
49297;BME280;35163;48.878;18.040;2022-07-23T08:53:24;98322.50;;;32.87;35.81
49297;BME280;35163;48.878;18.040;2022-07-23T08:55:56;98317.53;;;33.62;35.25
49297;BME280;35163;48.878;18.040;2022-07-23T08:58:23;98320.50;;;33.74;34.39
49297;BME280;35163;48.878;18.040;2022-07-23T09:00:54;98317.25;;;34.05;32.49
49297;BME280;35163;48.878;18.040;2022-07-23T09:03:33;98319.97;;;34.26;33.57
49297;BME280;35163;48.878;18.040;2022-07-23T09:06:01;98317.47;;;34.17;32.07
49297;BME280;35163;48.878;18.040;2022-07-23T09:08:39;98319.34;;;34.10;33.26
49297;BME280;35163;48.878;18.040;2022-07-23T09:11:08;98316.06;;;34.55;33.10
49297;BME280;35163;48.878;18.040;2022-07-23T09:16:13;98322.63;;;34.94;32.54
49297;BME280;35163;48.878;18.040;2022-07-23T09:21:09;98322.78;;;35.26;31.86
49297;BME280;35163;48.878;18.040;2022-07-23T09:23:37;98318.09;;;35.01;31.50
49297;BME280;35163;48.878;18.040;2022-07-23T09:26:20;98315.16;;;35.09;30.61
49297;BME280;35163;48.878;18.040;2022-07-23T09:28:51;98311.31;;;35.44;30.53
49297;BME280;35163;48.878;18.040;2022-07-23T09:31:19;98304.75;;;35.79;30.99
49297;BME280;35163;48.878;18.040;2022-07-23T09:33:46;98306.75;;;35.91;30.15
49297;BME280;35163;48.878;18.040;2022-07-23T09:36:13;98305.16;;;35.44;30.26
49297;BME280;35163;48.878;18.040;2022-07-23T09:38:50;98302.78;;;35.01;32.04
49297;BME280;35163;48.878;18.040;2022-07-23T09:41:17;98300.72;;;34.97;32.13
49297;BME280;35163;48.878;18.040;2022-07-23T09:43:44;98304.47;;;34.96;32.04
49297;BME280;35163;48.878;18.040;2022-07-23T09:46:23;98300.09;;;34.95;31.37
49297;BME280;35163;48.878;18.040;2022-07-23T09:48:52;98297.63;;;34.93;32.26
49297;BME280;35163;48.878;18.040;2022-07-23T09:51:20;98296.66;;;34.81;31.44
49297;BME280;35163;48.878;18.040;2022-07-23T09:54:04;98285.31;;;34.51;32.12
49297;BME280;35163;48.878;18.040;2022-07-23T09:56:33;98290.25;;;34.61;32.08
49297;BME280;35163;48.878;18.040;2022-07-23T09:59:02;98286.94;;;34.73;32.29
49297;BME280;35163;48.878;18.040;2022-07-23T10:01:56;98276.19;;;34.79;31.65
49297;BME280;35163;48.878;18.040;2022-07-23T10:04:24;98279.34;;;34.42;31.38
49297;BME280;35163;48.878;18.040;2022-07-23T10:06:53;98273.13;;;34.55;32.08
49297;BME280;35163;48.878;18.040;2022-07-23T10:09:29;98267.94;;;34.67;31.25
49297;BME280;35163;48.878;18.040;2022-07-23T10:11:58;98262.56;;;34.81;30.59
49297;BME280;35163;48.878;18.040;2022-07-23T10:14:41;98261.97;;;34.52;31.54
49297;BME280;35163;48.878;18.040;2022-07-23T10:17:08;98257.06;;;34.35;32.46
49297;BME280;35163;48.878;18.040;2022-07-23T10:19:35;98249.59;;;34.71;32.13
49297;BME280;35163;48.878;18.040;2022-07-23T10:22:06;98245.78;;;35.06;32.45
49297;BME280;35163;48.878;18.040;2022-07-23T10:24:45;98248.53;;;34.72;30.29
49297;BME280;35163;48.878;18.040;2022-07-23T10:30:03;98244.16;;;34.91;29.65
49297;BME280;35163;48.878;18.040;2022-07-23T10:38:53;98235.47;;;34.96;29.22
49297;BME280;35163;48.878;18.040;2022-07-23T10:41:36;98229.72;;;34.86;29.77
49297;BME280;35163;48.878;18.040;2022-07-23T10:44:17;98226.25;;;34.78;31.01
49297;BME280;35163;48.878;18.040;2022-07-23T10:49:42;98224.38;;;34.79;30.12
49297;BME280;35163;48.878;18.040;2022-07-23T10:54:41;98207.97;;;35.47;28.81
49297;BME280;35163;48.878;18.040;2022-07-23T10:57:10;98212.78;;;35.38;28.96
49297;BME280;35163;48.878;18.040;2022-07-23T11:02:36;98208.50;;;35.62;28.71
49297;BME280;35163;48.878;18.040;2022-07-23T11:05:09;98206.47;;;35.90;29.13
49297;BME280;35163;48.878;18.040;2022-07-23T11:07:38;98204.38;;;35.92;27.74
49297;BME280;35163;48.878;18.040;2022-07-23T11:11:07;98208.53;;;36.14;27.82
49297;BME280;35163;48.878;18.040;2022-07-23T11:16:13;98203.28;;;36.26;28.14
49297;BME280;35163;48.878;18.040;2022-07-23T11:37:09;98202.16;;;36.08;27.79
49297;BME280;35163;48.878;18.040;2022-07-23T11:39:37;98196.94;;;36.13;26.59
49297;BME280;35163;48.878;18.040;2022-07-23T11:42:06;98191.66;;;36.25;27.19
49297;BME280;35163;48.878;18.040;2022-07-23T11:44:38;98183.63;;;36.44;26.88
49297;BME280;35163;48.878;18.040;2022-07-23T11:47:07;98193.28;;;36.52;27.54
49297;BME280;35163;48.878;18.040;2022-07-23T11:49:35;98177.22;;;36.64;26.49
49297;BME280;35163;48.878;18.040;2022-07-23T11:52:12;98178.03;;;36.64;26.50
49297;BME280;35163;48.878;18.040;2022-07-23T11:55:02;98176.16;;;36.65;26.60
49297;BME280;35163;48.878;18.040;2022-07-23T11:57:40;98172.34;;;36.91;26.96
49297;BME280;35163;48.878;18.040;2022-07-23T12:00:09;98164.00;;;37.12;26.32
49297;BME280;35163;48.878;18.040;2022-07-23T12:02:43;98159.47;;;37.24;25.72
49297;BME280;35163;48.878;18.040;2022-07-23T12:05:18;98162.84;;;37.19;25.53
49297;BME280;35163;48.878;18.040;2022-07-23T12:07:47;98156.09;;;36.98;25.37
49297;BME280;35163;48.878;18.040;2022-07-23T12:10:55;98152.06;;;36.70;26.34
49297;BME280;35163;48.878;18.040;2022-07-23T12:13:19;98148.34;;;36.71;26.26
49297;BME280;35163;48.878;18.040;2022-07-23T12:15:48;98145.97;;;36.81;25.48
49297;BME280;35163;48.878;18.040;2022-07-23T12:18:18;98140.41;;;36.95;26.42
49297;BME280;35163;48.878;18.040;2022-07-23T12:20:48;98141.09;;;37.02;26.56
49297;BME280;35163;48.878;18.040;2022-07-23T12:23:18;98132.16;;;37.20;25.99
49297;BME280;35163;48.878;18.040;2022-07-23T12:25:47;98132.81;;;37.35;25.44
49297;BME280;35163;48.878;18.040;2022-07-23T12:28:18;98125.31;;;37.37;25.74
49297;BME280;35163;48.878;18.040;2022-07-23T12:30:53;98133.09;;;37.45;26.01
49297;BME280;35163;48.878;18.040;2022-07-23T12:33:27;98127.78;;;37.38;25.50
49297;BME280;35163;48.878;18.040;2022-07-23T12:35:57;98124.28;;;36.57;26.03
49297;BME280;35163;48.878;18.040;2022-07-23T12:38:27;98114.53;;;36.75;26.43
49297;BME280;35163;48.878;18.040;2022-07-23T12:40:56;98118.59;;;36.84;26.96
49297;BME280;35163;48.878;18.040;2022-07-23T12:43:27;98109.03;;;36.51;25.80
49297;BME280;35163;48.878;18.040;2022-07-23T12:46:09;98109.03;;;36.32;26.58
49297;BME280;35163;48.878;18.040;2022-07-23T12:48:53;98103.63;;;36.51;26.34
49297;BME280;35163;48.878;18.040;2022-07-23T12:51:25;98110.19;;;36.74;26.31
49297;BME280;35163;48.878;18.040;2022-07-23T12:54:04;98099.50;;;36.86;25.51
49297;BME280;35163;48.878;18.040;2022-07-23T12:56:34;98096.94;;;36.91;25.48
49297;BME280;35163;48.878;18.040;2022-07-23T13:01:33;98088.06;;;37.34;24.72
49297;BME280;35163;48.878;18.040;2022-07-23T13:04:10;98083.50;;;37.46;25.23
49297;BME280;35163;48.878;18.040;2022-07-23T13:06:46;98090.19;;;37.55;23.59
49297;BME280;35163;48.878;18.040;2022-07-23T13:09:17;98082.56;;;37.64;23.92
49297;BME280;35163;48.878;18.040;2022-07-23T13:11:45;98086.44;;;37.68;24.51
49297;BME280;35163;48.878;18.040;2022-07-23T13:14:14;98091.25;;;37.66;24.67
49297;BME280;35163;48.878;18.040;2022-07-23T13:16:41;98088.41;;;37.49;24.12
49297;BME280;35163;48.878;18.040;2022-07-23T13:19:08;98093.34;;;37.40;24.90
49297;BME280;35163;48.878;18.040;2022-07-23T13:21:37;98085.00;;;37.42;24.97
49297;BME280;35163;48.878;18.040;2022-07-23T13:24:05;98094.50;;;37.32;25.35
49297;BME280;35163;48.878;18.040;2022-07-23T13:26:34;98087.03;;;37.47;25.51
49297;BME280;35163;48.878;18.040;2022-07-23T13:29:02;98087.38;;;37.50;24.94
49297;BME280;35163;48.878;18.040;2022-07-23T13:31:30;98084.09;;;37.48;25.06
49297;BME280;35163;48.878;18.040;2022-07-23T13:33:57;98081.63;;;37.47;25.38
49297;BME280;35163;48.878;18.040;2022-07-23T13:36:23;98090.75;;;37.58;25.02
49297;BME280;35163;48.878;18.040;2022-07-23T13:38:50;98078.94;;;37.59;25.03
49297;BME280;35163;48.878;18.040;2022-07-23T13:41:18;98078.25;;;37.63;25.06
49297;BME280;35163;48.878;18.040;2022-07-23T13:43:45;98079.75;;;37.59;24.68
49297;BME280;35163;48.878;18.040;2022-07-23T13:46:13;98079.91;;;37.22;25.27